sensor_id;sensor_type;location;lat;lon;timestamp;temperature;humidity
70076;DHT22;63241;51.056;3.698;2023-06-22T05:31:35;35.50;44.40
70076;DHT22;63241;51.056;3.698;2023-06-22T05:34:21;35.90;42.30
70076;DHT22;63241;51.056;3.698;2023-06-22T05:47:31;33.60;42.70
70076;DHT22;63241;51.056;3.698;2023-06-22T05:50:18;32.20;44.70
70076;DHT22;63241;51.056;3.698;2023-06-22T05:53:23;31.20;46.90
70076;DHT22;63241;51.056;3.698;2023-06-22T05:56:19;30.60;48.10
70076;DHT22;63241;51.056;3.698;2023-06-22T05:59:05;29.90;49.50
70076;DHT22;63241;51.056;3.698;2023-06-22T06:01:51;29.20;51.40
70076;DHT22;63241;51.056;3.698;2023-06-22T06:04:37;28.80;52.40
70076;DHT22;63241;51.056;3.698;2023-06-22T06:07:48;28.50;53.20
70076;DHT22;63241;51.056;3.698;2023-06-22T06:10:44;28.10;54.00
70076;DHT22;63241;51.056;3.698;2023-06-22T06:13:30;27.90;55.20
70076;DHT22;63241;51.056;3.698;2023-06-22T06:16:16;27.60;55.50
70076;DHT22;63241;51.056;3.698;2023-06-22T06:19:03;27.30;56.50
70076;DHT22;63241;51.056;3.698;2023-06-22T06:25:33;27.10;56.90
70076;DHT22;63241;51.056;3.698;2023-06-22T06:28:19;27.20;57.40
70076;DHT22;63241;51.056;3.698;2023-06-22T06:31:05;27.30;57.40
70076;DHT22;63241;51.056;3.698;2023-06-22T06:34:17;27.30;57.50
70076;DHT22;63241;51.056;3.698;2023-06-22T06:37:27;27.30;57.60
70076;DHT22;63241;51.056;3.698;2023-06-22T06:40:14;27.20;57.80
70076;DHT22;63241;51.056;3.698;2023-06-22T06:43:00;27.30;58.00
70076;DHT22;63241;51.056;3.698;2023-06-22T06:45:47;27.30;57.90
70076;DHT22;63241;51.056;3.698;2023-06-22T06:52:32;27.80;57.40
70076;DHT22;63241;51.056;3.698;2023-06-22T06:55:18;28.00;56.80
70076;DHT22;63241;51.056;3.698;2023-06-22T06:58:05;27.80;56.00
70076;DHT22;63241;51.056;3.698;2023-06-22T07:04:30;28.00;55.50
70076;DHT22;63241;51.056;3.698;2023-06-22T07:07:17;28.10;55.90
70076;DHT22;63241;51.056;3.698;2023-06-22T07:21:14;28.00;56.10
70076;DHT22;63241;51.056;3.698;2023-06-22T07:24:01;28.20;56.10
70076;DHT22;63241;51.056;3.698;2023-06-22T07:26:48;28.30;55.10
70076;DHT22;63241;51.056;3.698;2023-06-22T07:33:36;29.00;54.70
70076;DHT22;63241;51.056;3.698;2023-06-22T07:36:22;29.40;53.60
70076;DHT22;63241;51.056;3.698;2023-06-22T07:39:08;29.50;52.60
70076;DHT22;63241;51.056;3.698;2023-06-22T08:01:48;30.40;52.40
70076;DHT22;63241;51.056;3.698;2023-06-22T08:04:34;30.40;52.70
70076;DHT22;63241;51.056;3.698;2023-06-22T08:07:21;30.30;51.70
70076;DHT22;63241;51.056;3.698;2023-06-22T08:14:13;30.10;52.70
70076;DHT22;63241;51.056;3.698;2023-06-22T08:16:59;30.00;52.80
70076;DHT22;63241;51.056;3.698;2023-06-22T09:12:50;27.90;55.40
70076;DHT22;63241;51.056;3.698;2023-06-22T09:15:36;27.70;55.10
70076;DHT22;63241;51.056;3.698;2023-06-22T09:23:34;26.60;56.80
70076;DHT22;63241;51.056;3.698;2023-06-22T09:26:21;26.50;57.20
70076;DHT22;63241;51.056;3.698;2023-06-22T09:29:09;26.30;57.50
70076;DHT22;63241;51.056;3.698;2023-06-22T09:36:02;25.90;58.50
70076;DHT22;63241;51.056;3.698;2023-06-22T09:38:49;25.50;60.00
70076;DHT22;63241;51.056;3.698;2023-06-22T09:41:37;25.60;61.10
70076;DHT22;63241;51.056;3.698;2023-06-22T09:48:13;25.60;61.30
70076;DHT22;63241;51.056;3.698;2023-06-22T09:51:00;25.40;61.60
70076;DHT22;63241;51.056;3.698;2023-06-22T09:53:46;25.30;62.20
70076;DHT22;63241;51.056;3.698;2023-06-22T09:56:33;25.20;63.80
70076;DHT22;63241;51.056;3.698;2023-06-22T10:03:27;24.90;70.50
70076;DHT22;63241;51.056;3.698;2023-06-22T10:06:14;24.70;71.00
70076;DHT22;63241;51.056;3.698;2023-06-22T10:09:00;24.70;73.90
70076;DHT22;63241;51.056;3.698;2023-06-22T10:20:24;24.60;81.10
70076;DHT22;63241;51.056;3.698;2023-06-22T10:23:11;24.70;83.50
70076;DHT22;63241;51.056;3.698;2023-06-22T10:26:24;24.70;85.40
70076;DHT22;63241;51.056;3.698;2023-06-22T10:29:34;24.60;88.20
70076;DHT22;63241;51.056;3.698;2023-06-22T10:32:21;24.40;85.90
70076;DHT22;63241;51.056;3.698;2023-06-22T10:35:07;24.20;88.90
70076;DHT22;63241;51.056;3.698;2023-06-22T10:37:55;24.30;90.10
70076;DHT22;63241;51.056;3.698;2023-06-22T10:59:06;25.50;90.70
70076;DHT22;63241;51.056;3.698;2023-06-22T11:01:54;25.60;86.80
70076;DHT22;63241;51.056;3.698;2023-06-22T11:04:40;25.70;85.70
70076;DHT22;63241;51.056;3.698;2023-06-22T11:07:45;25.50;81.70
70076;DHT22;63241;51.056;3.698;2023-06-22T11:11:03;25.20;83.30
70076;DHT22;63241;51.056;3.698;2023-06-22T11:13:49;25.00;83.40
70076;DHT22;63241;51.056;3.698;2023-06-22T11:16:36;24.80;82.60
70076;DHT22;63241;51.056;3.698;2023-06-22T11:23:26;24.00;84.10
70076;DHT22;63241;51.056;3.698;2023-06-22T11:26:13;23.60;90.10
70076;DHT22;63241;51.056;3.698;2023-06-22T11:28:59;23.50;90.50
70076;DHT22;63241;51.056;3.698;2023-06-22T11:31:45;23.60;92.10
70076;DHT22;63241;51.056;3.698;2023-06-22T11:38:28;23.60;90.30
70076;DHT22;63241;51.056;3.698;2023-06-22T11:41:36;23.60;90.40
70076;DHT22;63241;51.056;3.698;2023-06-22T11:44:22;23.60;88.70
70076;DHT22;63241;51.056;3.698;2023-06-22T11:47:08;23.60;86.20
70076;DHT22;63241;51.056;3.698;2023-06-22T11:56:37;23.60;87.20
70076;DHT22;63241;51.056;3.698;2023-06-22T11:59:24;23.70;88.70
70076;DHT22;63241;51.056;3.698;2023-06-22T12:02:10;23.80;88.50
70076;DHT22;63241;51.056;3.698;2023-06-22T12:08:53;23.90;87.60
70076;DHT22;63241;51.056;3.698;2023-06-22T12:11:39;24.10;87.10
70076;DHT22;63241;51.056;3.698;2023-06-22T12:14:25;24.10;86.60
70076;DHT22;63241;51.056;3.698;2023-06-22T12:17:18;24.30;88.60
70076;DHT22;63241;51.056;3.698;2023-06-22T12:20:28;24.70;88.40
70076;DHT22;63241;51.056;3.698;2023-06-22T12:23:15;25.00;88.90
70076;DHT22;63241;51.056;3.698;2023-06-22T12:26:01;25.20;85.80
70076;DHT22;63241;51.056;3.698;2023-06-22T12:28:48;25.40;85.00
70076;DHT22;63241;51.056;3.698;2023-06-22T12:31:58;25.50;85.40
70076;DHT22;63241;51.056;3.698;2023-06-22T12:35:07;25.60;85.50
70076;DHT22;63241;51.056;3.698;2023-06-22T12:37:55;25.60;83.90
70076;DHT22;63241;51.056;3.698;2023-06-22T12:40:41;25.40;84.40
70076;DHT22;63241;51.056;3.698;2023-06-22T12:43:28;25.30;84.50
70076;DHT22;63241;51.056;3.698;2023-06-22T12:52:54;25.40;84.90
70076;DHT22;63241;51.056;3.698;2023-06-22T12:55:40;25.50;85.40
70076;DHT22;63241;51.056;3.698;2023-06-22T12:59:01;25.40;82.90
70076;DHT22;63241;51.056;3.698;2023-06-22T13:04:45;25.20;84.50
70076;DHT22;63241;51.056;3.698;2023-06-22T13:07:31;25.20;84.30
70076;DHT22;63241;51.056;3.698;2023-06-22T13:10:18;25.40;84.60
70076;DHT22;63241;51.056;3.698;2023-06-22T13:13:33;25.60;84.30
70076;DHT22;63241;51.056;3.698;2023-06-22T13:16:43;26.00;84.10
70076;DHT22;63241;51.056;3.698;2023-06-22T13:19:29;26.10;82.60
70076;DHT22;63241;51.056;3.698;2023-06-22T13:22:31;26.40;80.90
70076;DHT22;63241;51.056;3.698;2023-06-22T13:29:19;26.90;78.00
70076;DHT22;63241;51.056;3.698;2023-06-22T13:32:06;27.20;78.10
70076;DHT22;63241;51.056;3.698;2023-06-22T13:34:53;27.60;78.70
70076;DHT22;63241;51.056;3.698;2023-06-22T13:37:40;27.70;76.90
70076;DHT22;63241;51.056;3.698;2023-06-22T13:40:51;28.10;76.90
70076;DHT22;63241;51.056;3.698;2023-06-22T13:46:24;28.50;74.10
70076;DHT22;63241;51.056;3.698;2023-06-22T13:49:11;28.70;73.70
70076;DHT22;63241;51.056;3.698;2023-06-22T13:51:57;28.60;72.30
70076;DHT22;63241;51.056;3.698;2023-06-22T13:58:39;29.00;70.90
70076;DHT22;63241;51.056;3.698;2023-06-22T14:01:26;29.50;68.40
70076;DHT22;63241;51.056;3.698;2023-06-22T14:04:12;29.80;66.10
70076;DHT22;63241;51.056;3.698;2023-06-22T14:07:22;29.90;65.20
70076;DHT22;63241;51.056;3.698;2023-06-22T14:10:34;29.90;65.10
70076;DHT22;63241;51.056;3.698;2023-06-22T14:13:20;29.80;64.30
70076;DHT22;63241;51.056;3.698;2023-06-22T14:16:06;29.90;64.50
70076;DHT22;63241;51.056;3.698;2023-06-22T14:18:52;30.00;64.30
70076;DHT22;63241;51.056;3.698;2023-06-22T14:25:40;29.80;63.00
70076;DHT22;63241;51.056;3.698;2023-06-22T14:28:26;29.20;64.60
70076;DHT22;63241;51.056;3.698;2023-06-22T14:31:14;28.80;66.00
70076;DHT22;63241;51.056;3.698;2023-06-22T14:37:48;29.40;67.40
70076;DHT22;63241;51.056;3.698;2023-06-22T14:40:35;30.10;65.80
70076;DHT22;63241;51.056;3.698;2023-06-22T14:43:21;30.80;63.00
70076;DHT22;63241;51.056;3.698;2023-06-22T14:46:07;31.20;60.80
70076;DHT22;63241;51.056;3.698;2023-06-22T14:52:52;31.60;59.70
70076;DHT22;63241;51.056;3.698;2023-06-22T14:55:40;31.50;58.70
70076;DHT22;63241;51.056;3.698;2023-06-22T14:58:27;31.40;58.20
70076;DHT22;63241;51.056;3.698;2023-06-22T15:05:04;30.80;58.00
70076;DHT22;63241;51.056;3.698;2023-06-22T15:07:50;30.90;58.40
70076;DHT22;63241;51.056;3.698;2023-06-22T15:10:37;30.80;58.40
70076;DHT22;63241;51.056;3.698;2023-06-22T15:13:24;30.70;58.80
70076;DHT22;63241;51.056;3.698;2023-06-22T15:33:07;31.20;57.90
70076;DHT22;63241;51.056;3.698;2023-06-22T15:35:54;31.30;56.20
70076;DHT22;63241;51.056;3.698;2023-06-22T15:38:41;31.40;56.40
70076;DHT22;63241;51.056;3.698;2023-06-22T15:48:08;30.30;56.70
70076;DHT22;63241;51.056;3.698;2023-06-22T15:50:55;30.30;56.80
70076;DHT22;63241;51.056;3.698;2023-06-22T15:53:41;30.20;57.30
70076;DHT22;63241;51.056;3.698;2023-06-22T16:00:32;29.40;59.00
70076;DHT22;63241;51.056;3.698;2023-06-22T16:03:19;29.00;60.50
70076;DHT22;63241;51.056;3.698;2023-06-22T16:06:05;28.70;61.70
70076;DHT22;63241;51.056;3.698;2023-06-22T16:15:41;27.70;65.50
70076;DHT22;63241;51.056;3.698;2023-06-22T16:18:28;27.40;67.20
70076;DHT22;63241;51.056;3.698;2023-06-22T16:21:15;27.30;68.70
70076;DHT22;63241;51.056;3.698;2023-06-22T16:28:02;27.20;69.30
70076;DHT22;63241;51.056;3.698;2023-06-22T16:30:49;27.10;69.50
70076;DHT22;63241;51.056;3.698;2023-06-22T16:33:36;27.10;70.10
70076;DHT22;63241;51.056;3.698;2023-06-22T16:40:21;27.20;71.00
70076;DHT22;63241;51.056;3.698;2023-06-22T16:43:07;27.00;70.90
70076;DHT22;63241;51.056;3.698;2023-06-22T16:45:54;27.00;71.60
70076;DHT22;63241;51.056;3.698;2023-06-22T16:56:42;27.00;72.50
70076;DHT22;63241;51.056;3.698;2023-06-22T16:59:29;27.20;71.80
70076;DHT22;63241;51.056;3.698;2023-06-22T17:02:17;27.00;70.40
70076;DHT22;63241;51.056;3.698;2023-06-22T17:13:36;26.50;72.50
70076;DHT22;63241;51.056;3.698;2023-06-22T17:16:24;26.50;73.40
70076;DHT22;63241;51.056;3.698;2023-06-22T17:19:31;26.50;73.80
70076;DHT22;63241;51.056;3.698;2023-06-22T17:22:26;26.40;73.30
70076;DHT22;63241;51.056;3.698;2023-06-22T17:25:14;26.40;73.60
70076;DHT22;63241;51.056;3.698;2023-06-22T17:28:02;26.20;73.70
70076;DHT22;63241;51.056;3.698;2023-06-22T17:34:54;26.00;74.70
70076;DHT22;63241;51.056;3.698;2023-06-22T17:37:54;25.80;75.10
70076;DHT22;63241;51.056;3.698;2023-06-22T17:43:48;25.50;76.20
70076;DHT22;63241;51.056;3.698;2023-06-22T17:46:36;25.50;77.50
70076;DHT22;63241;51.056;3.698;2023-06-22T17:49:28;25.30;76.80
70076;DHT22;63241;51.056;3.698;2023-06-22T17:56:18;24.90;78.30
70076;DHT22;63241;51.056;3.698;2023-06-22T17:59:06;24.90;79.00
70076;DHT22;63241;51.056;3.698;2023-06-22T18:01:52;24.80;79.30
70076;DHT22;63241;51.056;3.698;2023-06-22T18:08:34;24.70;79.60
70076;DHT22;63241;51.056;3.698;2023-06-22T18:11:20;24.60;80.30
70076;DHT22;63241;51.056;3.698;2023-06-22T18:14:09;24.60;80.20
70076;DHT22;63241;51.056;3.698;2023-06-22T18:16:55;24.60;80.10
70076;DHT22;63241;51.056;3.698;2023-06-22T18:38:50;24.00;81.40
70076;DHT22;63241;51.056;3.698;2023-06-22T18:41:40;23.90;81.80
70076;DHT22;63241;51.056;3.698;2023-06-22T18:44:28;23.60;82.50
70076;DHT22;63241;51.056;3.698;2023-06-22T18:50:51;23.30;84.50
70076;DHT22;63241;51.056;3.698;2023-06-22T18:53:37;23.10;85.40
70076;DHT22;63241;51.056;3.698;2023-06-22T18:56:25;23.00;86.40
70076;DHT22;63241;51.056;3.698;2023-06-22T19:03:28;22.80;87.30
70076;DHT22;63241;51.056;3.698;2023-06-22T19:06:09;22.70;88.30
70076;DHT22;63241;51.056;3.698;2023-06-22T19:09:15;22.60;88.50
70076;DHT22;63241;51.056;3.698;2023-06-22T19:15:54;22.40;89.90
70076;DHT22;63241;51.056;3.698;2023-06-22T19:18:40;22.10;90.70
70076;DHT22;63241;51.056;3.698;2023-06-22T19:21:27;21.90;91.50
70076;DHT22;63241;51.056;3.698;2023-06-22T21:27:30;17.60;99.90
70076;DHT22;63241;51.056;3.698;2023-06-22T21:41:54;17.30;99.90
70076;DHT22;63241;51.056;3.698;2023-06-22T21:48:39;17.20;99.90
70076;DHT22;63241;51.056;3.698;2023-06-22T21:51:26;17.10;99.90
70076;DHT22;63241;51.056;3.698;2023-06-22T21:54:12;17.10;99.90
70076;DHT22;63241;51.056;3.698;2023-06-22T22:21:54;16.50;99.90
70076;DHT22;63241;51.056;3.698;2023-06-22T22:28:53;16.40;99.90
70076;DHT22;63241;51.056;3.698;2023-06-22T22:34:53;16.20;99.90
70076;DHT22;63241;51.056;3.698;2023-06-22T22:40:49;16.10;99.90
70076;DHT22;63241;51.056;3.698;2023-06-22T22:43:37;16.10;99.90
70076;DHT22;63241;51.056;3.698;2023-06-22T22:46:24;16.00;99.90
70076;DHT22;63241;51.056;3.698;2023-06-22T22:49:11;16.00;99.90
70076;DHT22;63241;51.056;3.698;2023-06-22T22:55:53;15.90;99.90
70076;DHT22;63241;51.056;3.698;2023-06-22T22:58:39;15.80;99.90
70076;DHT22;63241;51.056;3.698;2023-06-22T23:01:25;15.80;99.90
70076;DHT22;63241;51.056;3.698;2023-06-22T23:04:37;15.80;99.90
70076;DHT22;63241;51.056;3.698;2023-06-22T23:07:48;15.80;99.90
70076;DHT22;63241;51.056;3.698;2023-06-22T23:10:35;15.70;99.90
70076;DHT22;63241;51.056;3.698;2023-06-22T23:13:21;15.70;99.90
70076;DHT22;63241;51.056;3.698;2023-06-22T23:16:07;15.60;99.90
70076;DHT22;63241;51.056;3.698;2023-06-22T23:19:13;15.60;99.90
70076;DHT22;63241;51.056;3.698;2023-06-22T23:25:06;15.50;99.90
70076;DHT22;63241;51.056;3.698;2023-06-22T23:27:54;15.50;99.90
70076;DHT22;63241;51.056;3.698;2023-06-22T23:30:43;15.50;99.90
70076;DHT22;63241;51.056;3.698;2023-06-22T23:37:23;15.40;99.90
70076;DHT22;63241;51.056;3.698;2023-06-22T23:40:09;15.40;99.90
